createdAt,value
2023-05-17T00:00:43.218Z,3.03
2023-05-17T00:02:16.002Z,3.10
2023-05-17T00:03:47.912Z,2.80
2023-05-17T00:05:20.799Z,3.00
2023-05-17T00:06:54.924Z,3.00
2023-05-17T00:08:27.651Z,3.10
2023-05-17T00:10:00.558Z,3.20
2023-05-17T00:11:33.301Z,2.60
2023-05-17T00:13:06.092Z,2.90
2023-05-17T00:14:40.870Z,2.70
2023-05-17T00:16:13.601Z,2.60
2023-05-17T00:17:46.448Z,2.80
2023-05-17T00:19:19.646Z,3.20
2023-05-17T00:20:52.553Z,2.70
2023-05-17T00:22:26.726Z,2.72
2023-05-17T00:23:58.537Z,2.75
2023-05-17T00:25:31.490Z,2.90
2023-05-17T00:27:04.713Z,2.90
2023-05-17T00:28:37.583Z,3.05
2023-05-17T00:30:10.756Z,2.95
2023-05-17T00:31:43.516Z,2.90
2023-05-17T00:33:16.277Z,2.95
2023-05-17T00:34:49.041Z,3.30
2023-05-17T00:36:22.094Z,3.07
2023-05-17T00:37:55.230Z,3.00
2023-05-17T00:39:27.976Z,3.17
2023-05-17T00:41:00.743Z,2.70
2023-05-17T00:42:33.508Z,3.10
2023-05-17T00:44:06.575Z,3.23
2023-05-17T00:45:39.382Z,3.20
2023-05-17T00:47:12.162Z,3.00
2023-05-17T00:48:45.195Z,3.10
2023-05-17T00:50:18.249Z,3.10
2023-05-17T00:51:51.231Z,3.17
2023-05-17T00:53:25.824Z,3.20
2023-05-17T00:54:58.738Z,3.10
2023-05-17T00:56:31.600Z,3.15
2023-05-17T00:58:04.500Z,3.25
2023-05-17T00:59:37.513Z,3.20
2023-05-17T01:01:10.696Z,3.38
2023-05-17T01:02:44.539Z,3.30
2023-05-17T01:04:17.455Z,3.45
2023-05-17T01:05:50.730Z,3.00
2023-05-17T01:07:23.501Z,2.97
2023-05-17T01:08:56.665Z,3.20
2023-05-17T01:10:37.831Z,3.00
2023-05-17T01:12:26.253Z,2.90
2023-05-17T01:14:06.687Z,3.33
2023-05-17T01:15:43.880Z,3.40
2023-05-17T01:17:19.304Z,3.35
2023-05-17T01:18:57.493Z,3.30
2023-05-17T01:20:37.932Z,3.53
2023-05-17T01:22:20.542Z,3.17
2023-05-17T01:24:04.488Z,3.05
2023-05-17T01:25:47.019Z,3.10
2023-05-17T01:27:21.968Z,3.10
2023-05-17T01:28:55.804Z,3.33
2023-05-17T01:30:30.404Z,3.33
2023-05-17T01:32:05.881Z,3.35
2023-05-17T01:33:39.763Z,2.90
2023-05-17T01:35:13.519Z,2.90
2023-05-17T01:36:46.241Z,2.77
2023-05-17T01:38:18.989Z,3.00
2023-05-17T01:39:50.955Z,3.33
2023-05-17T01:41:30.329Z,3.10
2023-05-17T01:43:11.209Z,3.00
2023-05-17T01:44:49.277Z,3.03
2023-05-17T01:46:29.157Z,3.33
2023-05-17T01:48:13.761Z,3.03
2023-05-17T01:49:49.678Z,3.30
2023-05-17T01:51:28.316Z,3.20
2023-05-17T01:53:06.596Z,3.17
2023-05-17T01:54:46.862Z,3.08
2023-05-17T01:56:26.687Z,3.33
2023-05-17T01:58:02.370Z,3.20
2023-05-17T01:59:39.239Z,3.15
2023-05-17T02:01:14.211Z,3.05
2023-05-17T02:02:46.965Z,3.17
2023-05-17T02:04:20.043Z,3.45
2023-05-17T02:05:52.870Z,3.10
2023-05-17T02:07:25.754Z,3.15
2023-05-17T02:08:58.640Z,3.30
2023-05-17T02:10:31.384Z,2.70
2023-05-17T02:12:04.263Z,2.83
2023-05-17T02:13:36.990Z,3.15
2023-05-17T02:15:12.061Z,3.17
2023-05-17T02:16:44.819Z,3.22
2023-05-17T02:18:17.701Z,2.97
2023-05-17T02:19:49.658Z,3.08
2023-05-17T02:21:22.373Z,3.33
2023-05-17T02:22:55.116Z,3.03
2023-05-17T02:24:26.979Z,2.83
2023-05-17T02:25:59.778Z,2.80
2023-05-17T02:27:32.590Z,3.00
2023-05-17T02:29:05.369Z,3.22
2023-05-17T02:30:40.760Z,3.30
2023-05-17T02:32:13.520Z,2.83
2023-05-17T02:33:45.682Z,3.28
2023-05-17T02:35:18.589Z,3.40
2023-05-17T02:36:50.580Z,3.38
2023-05-17T02:38:24.657Z,3.25
2023-05-17T02:39:57.410Z,3.30
2023-05-17T02:41:29.198Z,2.90
2023-05-17T02:43:02.020Z,2.90
2023-05-17T02:44:34.800Z,2.88
2023-05-17T02:46:08.546Z,2.78
2023-05-17T02:47:41.517Z,2.65
2023-05-17T02:49:13.468Z,3.10
2023-05-17T02:50:46.423Z,3.17
2023-05-17T02:52:19.176Z,3.30
2023-05-17T02:53:51.926Z,3.30
2023-05-17T02:55:23.752Z,3.28
2023-05-17T02:56:56.720Z,2.78
2023-05-17T02:58:29.423Z,2.90
2023-05-17T03:00:01.190Z,3.00
2023-05-17T03:01:35.281Z,2.75
2023-05-17T03:03:08.199Z,3.00
2023-05-17T03:04:41.225Z,3.10
2023-05-17T03:06:14.077Z,2.80
2023-05-17T03:07:46.803Z,2.90
2023-05-17T03:09:19.729Z,3.22
2023-05-17T03:10:52.438Z,3.22
2023-05-17T03:12:26.056Z,3.17
2023-05-17T03:13:59.602Z,3.40
2023-05-17T03:15:32.354Z,3.10
2023-05-17T03:17:06.568Z,3.15
2023-05-17T03:18:38.468Z,2.88
2023-05-17T03:20:11.935Z,2.90
2023-05-17T03:21:44.664Z,2.97
2023-05-17T03:23:17.421Z,2.97
2023-05-17T03:24:50.197Z,3.38
2023-05-17T03:26:24.024Z,3.00
2023-05-17T03:27:56.770Z,2.80
2023-05-17T03:29:29.560Z,3.17
2023-05-17T03:31:02.441Z,2.67
2023-05-17T03:32:38.679Z,2.90
2023-05-17T03:34:11.625Z,2.92
2023-05-17T03:35:43.577Z,2.90
2023-05-17T03:37:16.317Z,3.20
2023-05-17T03:38:49.052Z,2.97
2023-05-17T03:40:20.967Z,2.88
2023-05-17T03:41:53.830Z,3.40
2023-05-17T03:43:26.114Z,3.63
2023-05-17T03:44:58.905Z,3.40
2023-05-17T03:46:31.636Z,3.20
2023-05-17T03:48:06.417Z,3.20
2023-05-17T03:49:39.216Z,3.25
2023-05-17T03:51:12.135Z,3.00
2023-05-17T03:52:46.077Z,3.08
2023-05-17T03:54:18.842Z,3.42
2023-05-17T03:55:51.735Z,3.65
2023-05-17T03:57:24.464Z,2.97
2023-05-17T03:58:57.214Z,3.22
2023-05-17T04:00:29.165Z,2.95
2023-05-17T04:02:01.967Z,3.25
2023-05-17T04:03:37.348Z,3.03
2023-05-17T04:05:10.745Z,3.35
2023-05-17T04:06:43.507Z,3.08
2023-05-17T04:08:16.289Z,2.95
2023-05-17T04:09:49.127Z,3.10
2023-05-17T04:11:24.026Z,3.13
2023-05-17T04:12:56.787Z,2.90
2023-05-17T04:14:29.602Z,3.22
2023-05-17T04:16:02.336Z,3.10
2023-05-17T04:17:35.154Z,3.30
2023-05-17T04:19:08.536Z,3.17
2023-05-17T04:20:41.353Z,3.28
2023-05-17T04:22:13.147Z,3.40
2023-05-17T04:23:46.020Z,2.97
2023-05-17T04:25:19.005Z,3.03
2023-05-17T04:26:51.846Z,3.17
2023-05-17T04:28:24.744Z,3.28
2023-05-17T04:29:57.490Z,3.10
2023-05-17T04:31:30.590Z,3.00
2023-05-17T04:33:03.472Z,3.17
2023-05-17T04:34:36.889Z,3.10
2023-05-17T04:36:10.118Z,2.97
2023-05-17T04:37:42.895Z,3.15
2023-05-17T04:39:15.652Z,2.92
2023-05-17T04:40:48.478Z,3.22
2023-05-17T04:42:21.445Z,3.40
2023-05-17T04:43:54.239Z,3.25
2023-05-17T04:45:27.104Z,3.42
2023-05-17T04:46:59.903Z,3.50
2023-05-17T04:48:33.024Z,3.75
2023-05-17T04:50:06.925Z,3.35
2023-05-17T04:51:39.777Z,3.58
2023-05-17T04:53:12.493Z,4.97
2023-05-17T04:54:45.273Z,3.38
2023-05-17T04:56:18.090Z,3.40
2023-05-17T04:57:50.837Z,3.60
2023-05-17T04:59:23.553Z,3.72
2023-05-17T05:00:56.311Z,3.67
2023-05-17T05:02:28.223Z,3.53
2023-05-17T05:04:01.088Z,3.10
2023-05-17T05:05:35.576Z,3.65
2023-05-17T05:07:08.386Z,3.30
2023-05-17T05:08:41.775Z,3.13
2023-05-17T05:10:14.585Z,3.60
2023-05-17T05:11:47.336Z,3.47
2023-05-17T05:13:20.074Z,3.70
2023-05-17T05:14:52.833Z,3.20
2023-05-17T05:16:25.667Z,3.50
2023-05-17T05:17:57.497Z,3.20
2023-05-17T05:19:30.335Z,3.75
2023-05-17T05:21:04.742Z,3.53
2023-05-17T05:22:36.519Z,4.22
2023-05-17T05:24:09.558Z,3.70
2023-05-17T05:25:44.205Z,3.85
2023-05-17T05:27:16.933Z,3.92
2023-05-17T05:28:49.651Z,3.28
2023-05-17T05:30:22.902Z,3.58
2023-05-17T05:31:55.652Z,3.58
2023-05-17T05:33:28.656Z,3.78
2023-05-17T05:35:01.459Z,3.58
2023-05-17T05:36:35.526Z,3.78
2023-05-17T05:38:11.555Z,3.63
2023-05-17T05:39:44.308Z,3.53
2023-05-17T05:41:17.055Z,3.90
2023-05-17T05:42:49.830Z,3.85
2023-05-17T05:44:24.576Z,3.92
2023-05-17T05:45:58.541Z,4.10
2023-05-17T05:47:31.331Z,3.95
2023-05-17T05:49:04.301Z,3.67
2023-05-17T05:50:37.191Z,3.97
2023-05-17T05:52:11.243Z,4.20
2023-05-17T05:53:43.985Z,3.97
2023-05-17T05:55:16.754Z,3.88
2023-05-17T05:56:51.146Z,4.10
2023-05-17T05:58:23.914Z,4.00
2023-05-17T05:59:56.835Z,3.42
2023-05-17T06:01:29.732Z,3.60
2023-05-17T06:03:02.567Z,3.97
2023-05-17T06:04:44.639Z,4.00
2023-05-17T06:06:19.367Z,4.47
2023-05-17T06:07:53.663Z,3.95
2023-05-17T06:09:26.389Z,3.90
2023-05-17T06:10:59.150Z,4.30
2023-05-17T06:12:32.013Z,3.90
2023-05-17T06:14:04.754Z,4.20
2023-05-17T06:15:37.502Z,4.00
2023-05-17T06:17:10.285Z,3.53
2023-05-17T06:18:43.115Z,3.78
2023-05-17T06:20:16.452Z,3.90
2023-05-17T06:21:49.276Z,3.60
2023-05-17T06:23:23.392Z,3.60
2023-05-17T06:24:56.135Z,3.83
2023-05-17T06:26:28.893Z,3.57
2023-05-17T06:28:02.702Z,3.57
2023-05-17T06:29:35.465Z,3.90
2023-05-17T06:31:08.222Z,3.77
2023-05-17T06:32:41.526Z,3.67
2023-05-17T06:34:14.496Z,3.87
2023-05-17T06:35:56.384Z,3.83
2023-05-17T06:37:30.127Z,3.50
2023-05-17T06:39:04.528Z,3.60
2023-05-17T06:40:37.360Z,3.30
2023-05-17T06:42:10.186Z,3.23
2023-05-17T06:43:42.938Z,3.87
2023-05-17T06:45:15.769Z,3.17
2023-05-17T06:46:48.508Z,3.50
2023-05-17T06:48:21.445Z,3.30
2023-05-17T06:49:54.275Z,3.33
2023-05-17T06:51:27.116Z,3.60
2023-05-17T06:52:59.859Z,3.27
2023-05-17T06:54:33.936Z,3.43
2023-05-17T06:56:06.968Z,3.20
2023-05-17T06:57:39.862Z,3.50
2023-05-17T06:59:12.659Z,3.60
2023-05-17T07:00:45.677Z,3.00
2023-05-17T07:02:18.641Z,3.33
2023-05-17T07:03:51.446Z,3.30
2023-05-17T07:05:24.750Z,3.73
2023-05-17T07:06:57.602Z,3.23
2023-05-17T07:08:30.338Z,3.40
2023-05-17T07:10:04.782Z,3.20
2023-05-17T07:11:37.581Z,3.40
2023-05-17T07:13:10.403Z,3.03
2023-05-17T07:14:43.176Z,3.40
2023-05-17T07:16:15.914Z,3.10
2023-05-17T07:17:48.687Z,3.00
2023-05-17T07:19:21.583Z,3.27
2023-05-17T07:20:54.508Z,3.20
2023-05-17T07:22:27.260Z,3.60
2023-05-17T07:24:03.167Z,3.30
2023-05-17T07:25:41.225Z,3.43
2023-05-17T07:27:14.224Z,3.47
2023-05-17T07:28:47.118Z,3.40
2023-05-17T07:30:19.907Z,3.33
2023-05-17T07:31:52.708Z,3.33
2023-05-17T07:33:25.667Z,3.10
2023-05-17T07:34:58.566Z,3.10
2023-05-17T07:36:31.439Z,2.63
2023-05-17T07:38:04.302Z,2.70
2023-05-17T07:39:37.036Z,2.50
2023-05-17T07:41:13.788Z,2.90
2023-05-17T07:42:46.560Z,2.53
2023-05-17T07:44:19.341Z,2.93
2023-05-17T07:45:52.092Z,2.30
2023-05-17T07:47:26.949Z,2.70
2023-05-17T07:48:59.960Z,2.80
2023-05-17T07:50:33.145Z,2.50
2023-05-17T07:52:06.396Z,2.50
2023-05-17T07:53:39.206Z,2.60
2023-05-17T07:55:12.403Z,2.33
2023-05-17T07:56:46.616Z,2.80
2023-05-17T07:58:19.366Z,2.83
2023-05-17T07:59:52.151Z,2.60
2023-05-17T08:01:25.012Z,2.80
2023-05-17T08:02:58.301Z,2.80
2023-05-17T08:04:31.301Z,2.67
2023-05-17T08:06:04.283Z,2.70
2023-05-17T08:07:37.158Z,3.10
2023-05-17T08:09:10.985Z,2.87
2023-05-17T08:10:43.788Z,2.70
2023-05-17T08:12:17.886Z,2.73
2023-05-17T08:13:51.195Z,3.13
2023-05-17T08:15:24.145Z,3.00
2023-05-17T08:16:56.932Z,2.77
2023-05-17T08:18:29.754Z,2.97
2023-05-17T08:20:02.653Z,2.77
2023-05-17T08:21:37.156Z,2.67
2023-05-17T08:23:09.932Z,2.70
2023-05-17T08:24:44.815Z,2.90
2023-05-17T08:26:18.834Z,2.63
2023-05-17T08:27:53.289Z,3.27
2023-05-17T08:29:26.033Z,2.83
2023-05-17T08:30:59.319Z,3.30
2023-05-17T08:32:32.110Z,2.93
2023-05-17T08:34:07.290Z,2.60
2023-05-17T08:35:40.075Z,2.90
2023-05-17T08:37:12.839Z,2.90
2023-05-17T08:38:46.219Z,2.70
2023-05-17T08:40:21.806Z,2.83
2023-05-17T08:41:59.258Z,2.80
2023-05-17T08:43:33.400Z,2.63
2023-05-17T08:45:08.397Z,2.60
2023-05-17T08:46:42.610Z,3.40
2023-05-17T08:48:17.525Z,2.90
2023-05-17T08:49:50.359Z,2.67
2023-05-17T08:51:23.706Z,3.13
2023-05-17T08:52:58.255Z,3.07
2023-05-17T08:54:31.050Z,3.00
2023-05-17T08:56:06.189Z,2.30
2023-05-17T08:57:40.378Z,3.10
2023-05-17T08:59:15.019Z,2.90
2023-05-17T09:00:48.528Z,3.03
2023-05-17T09:02:22.430Z,2.90
2023-05-17T09:03:55.399Z,2.90
2023-05-17T09:05:28.948Z,2.37
2023-05-17T09:07:01.767Z,2.90
2023-05-17T09:08:34.713Z,2.63
2023-05-17T09:10:08.617Z,2.30
2023-05-17T09:11:41.664Z,3.10
2023-05-17T09:13:14.733Z,2.30
2023-05-17T09:14:49.312Z,3.07
2023-05-17T09:16:22.271Z,2.87
2023-05-17T09:17:55.720Z,2.83
2023-05-17T09:19:28.867Z,2.70
2023-05-17T09:21:04.667Z,2.80
2023-05-17T09:22:38.771Z,2.70
2023-05-17T09:24:11.832Z,2.93
2023-05-17T09:25:49.166Z,2.77
2023-05-17T09:27:21.926Z,2.97
2023-05-17T09:28:54.680Z,2.97
2023-05-17T09:30:33.216Z,3.17
2023-05-17T09:32:16.300Z,3.10
2023-05-17T09:33:50.260Z,3.13
2023-05-17T09:35:29.859Z,3.00
2023-05-17T09:37:04.201Z,2.83
2023-05-17T09:38:36.976Z,2.63
2023-05-17T09:40:10.621Z,2.87
2023-05-17T09:41:45.378Z,2.73
2023-05-17T09:43:24.787Z,2.83
2023-05-17T09:44:58.414Z,2.97
2023-05-17T09:46:36.287Z,2.70
2023-05-17T09:48:14.574Z,3.03
2023-05-17T09:49:47.375Z,2.93
2023-05-17T09:51:20.105Z,2.87
2023-05-17T09:52:52.853Z,2.87
2023-05-17T09:54:25.595Z,2.77
2023-05-17T09:56:00.157Z,2.87
2023-05-17T09:57:38.903Z,2.77
2023-05-17T09:59:16.619Z,2.53
2023-05-17T10:00:54.060Z,3.00
2023-05-17T10:02:32.722Z,2.83
2023-05-17T10:04:06.055Z,2.80
2023-05-17T10:05:40.612Z,3.10
2023-05-17T10:07:14.437Z,3.03
2023-05-17T10:08:52.087Z,2.80
2023-05-17T10:10:25.367Z,2.70
2023-05-17T10:11:59.877Z,3.23
2023-05-17T10:13:37.188Z,2.97
2023-05-17T10:15:11.286Z,2.80
2023-05-17T10:16:44.268Z,3.27
2023-05-17T10:18:19.579Z,2.60
2023-05-17T10:19:53.444Z,3.03
2023-05-17T10:21:28.433Z,2.90
2023-05-17T10:23:03.721Z,2.70
2023-05-17T10:24:37.899Z,2.57
2023-05-17T10:26:11.390Z,3.03
2023-05-17T10:27:44.269Z,3.00
2023-05-17T10:29:18.164Z,3.03
2023-05-17T10:30:52.187Z,2.80
2023-05-17T10:32:26.997Z,2.80
2023-05-17T10:34:02.395Z,3.20
2023-05-17T10:35:35.766Z,2.73
2023-05-17T10:37:08.649Z,2.80
2023-05-17T10:38:42.833Z,2.60
2023-05-17T10:40:20.091Z,2.80
2023-05-17T10:42:03.480Z,2.73
2023-05-17T10:43:48.015Z,2.70
2023-05-17T10:45:22.681Z,2.50
2023-05-17T10:46:57.241Z,2.80
2023-05-17T10:48:31.004Z,2.93
2023-05-17T10:50:12.861Z,3.23
2023-05-17T10:51:47.157Z,2.57
2023-05-17T10:53:19.895Z,3.03
2023-05-17T10:54:55.102Z,2.70
2023-05-17T10:56:28.964Z,2.63
2023-05-17T10:58:19.810Z,2.63
2023-05-17T10:59:58.910Z,2.70
2023-05-17T11:01:52.500Z,3.00
2023-05-17T11:03:29.256Z,3.13
2023-05-17T11:05:02.559Z,3.00
2023-05-17T11:06:41.324Z,3.00
2023-05-17T11:08:16.940Z,2.53
2023-05-17T11:09:51.660Z,3.30
2023-05-17T11:11:25.157Z,3.17
2023-05-17T11:12:58.001Z,3.17
2023-05-17T11:14:44.675Z,3.13
2023-05-17T11:16:18.321Z,2.90
2023-05-17T11:17:53.985Z,2.70
2023-05-17T11:19:26.925Z,2.90
2023-05-17T11:21:09.391Z,3.20
2023-05-17T11:22:45.234Z,3.00
2023-05-17T11:24:26.472Z,3.40
2023-05-17T11:26:16.140Z,3.03
2023-05-17T11:27:51.556Z,2.90
2023-05-17T11:29:30.421Z,3.07
2023-05-17T11:31:03.446Z,2.80
2023-05-17T11:32:36.339Z,3.20
2023-05-17T11:34:09.612Z,3.00
2023-05-17T11:35:42.719Z,2.97
2023-05-17T11:37:27.379Z,3.50
2023-05-17T11:39:14.700Z,2.87
2023-05-17T11:40:50.298Z,2.93
2023-05-17T11:42:26.330Z,3.00
2023-05-17T11:43:59.551Z,2.90
2023-05-17T11:45:43.170Z,3.30
2023-05-17T11:47:16.580Z,2.60
2023-05-17T11:48:51.924Z,3.20
2023-05-17T11:50:24.871Z,3.20
2023-05-17T11:51:57.644Z,3.20
2023-05-17T11:53:32.536Z,3.10
2023-05-17T11:55:08.189Z,3.30
2023-05-17T11:56:43.106Z,2.73
2023-05-17T11:58:19.552Z,3.00
2023-05-17T12:00:00.001Z,3.20
2023-05-17T12:01:44.237Z,2.90
2023-05-17T12:03:18.667Z,2.97
2023-05-17T12:04:51.576Z,3.10
2023-05-17T12:06:25.602Z,2.73
2023-05-17T12:07:59.244Z,3.13
2023-05-17T12:09:32.471Z,3.10
2023-05-17T12:11:08.189Z,3.00
2023-05-17T12:12:42.916Z,3.00
2023-05-17T12:14:17.662Z,3.50
2023-05-17T12:15:55.705Z,3.03
2023-05-17T12:17:34.703Z,2.83
2023-05-17T12:19:18.829Z,3.10
2023-05-17T12:20:55.908Z,3.10
2023-05-17T12:22:28.638Z,3.37
2023-05-17T12:24:01.403Z,3.30
2023-05-17T12:25:34.143Z,3.10
2023-05-17T12:27:09.710Z,3.17
2023-05-17T12:28:44.497Z,3.27
2023-05-17T12:30:17.875Z,2.70
2023-05-17T12:31:53.717Z,2.80
2023-05-17T12:33:27.196Z,2.83
2023-05-17T12:35:00.137Z,2.90
2023-05-17T12:36:34.711Z,2.80
2023-05-17T12:38:07.562Z,2.40
2023-05-17T12:39:40.895Z,2.77
2023-05-17T12:41:15.065Z,3.03
2023-05-17T12:42:49.159Z,2.57
2023-05-17T12:44:22.222Z,2.73
2023-05-17T12:45:55.051Z,2.70
2023-05-17T12:47:32.084Z,2.70
2023-05-17T12:49:07.467Z,2.67
2023-05-17T12:50:45.697Z,2.50
2023-05-17T12:52:19.156Z,2.83
2023-05-17T12:53:53.741Z,3.13
2023-05-17T12:55:27.014Z,2.43
2023-05-17T12:56:59.756Z,2.53
2023-05-17T12:58:33.873Z,2.43
2023-05-17T13:00:09.007Z,2.40
2023-05-17T13:01:44.835Z,2.70
2023-05-17T13:03:17.735Z,2.40
2023-05-17T13:04:50.817Z,2.40
2023-05-17T13:06:23.767Z,2.07
2023-05-17T13:07:56.538Z,2.20
2023-05-17T13:09:30.990Z,2.20
2023-05-17T13:11:11.611Z,2.50
2023-05-17T13:12:44.351Z,2.00
2023-05-17T13:14:34.545Z,2.20
2023-05-17T13:16:08.224Z,2.07
2023-05-17T13:17:44.716Z,2.60
2023-05-17T13:19:17.768Z,2.13
2023-05-17T13:20:51.266Z,2.87
2023-05-17T13:22:25.131Z,2.40
2023-05-17T13:23:57.902Z,2.30
2023-05-17T13:25:31.537Z,2.20
2023-05-17T13:27:04.826Z,2.17
2023-05-17T13:28:38.062Z,2.07
2023-05-17T13:30:12.940Z,2.43
2023-05-17T13:31:45.666Z,2.10
2023-05-17T13:33:18.977Z,2.10
2023-05-17T13:34:51.852Z,2.20
2023-05-17T13:36:25.052Z,1.93
2023-05-17T13:37:58.120Z,2.00
2023-05-17T13:39:30.997Z,2.13
2023-05-17T13:41:03.797Z,2.10
2023-05-17T13:42:36.568Z,2.33
2023-05-17T13:44:09.640Z,2.03
2023-05-17T13:45:43.888Z,2.17
2023-05-17T13:47:17.146Z,2.23
2023-05-17T13:48:50.058Z,2.30
2023-05-17T13:50:23.953Z,2.70
2023-05-17T13:51:57.672Z,2.30
2023-05-17T13:53:30.497Z,2.27
2023-05-17T13:55:03.295Z,2.60
2023-05-17T13:56:36.074Z,2.10
2023-05-17T13:58:08.847Z,2.17
2023-05-17T13:59:42.318Z,2.10
2023-05-17T14:01:18.590Z,2.10
2023-05-17T14:02:51.465Z,2.30
2023-05-17T14:04:24.295Z,2.30
2023-05-17T14:05:57.626Z,2.17
2023-05-17T14:07:30.390Z,2.30
2023-05-17T14:09:03.977Z,2.47
2023-05-17T14:10:37.205Z,2.27
2023-05-17T14:12:10.146Z,2.50
2023-05-17T14:13:43.188Z,2.10
2023-05-17T14:15:16.677Z,2.37
2023-05-17T14:16:50.779Z,2.37
2023-05-17T14:18:23.730Z,2.10
2023-05-17T14:19:56.868Z,2.20
2023-05-17T14:21:29.710Z,2.17
2023-05-17T14:23:02.616Z,2.10
2023-05-17T14:24:36.374Z,2.20
2023-05-17T14:26:09.410Z,2.17
2023-05-17T14:27:42.491Z,2.30
2023-05-17T14:29:15.259Z,2.27
2023-05-17T14:30:48.457Z,2.90
2023-05-17T14:32:22.554Z,2.13
2023-05-17T14:33:55.469Z,2.03
2023-05-17T14:35:28.274Z,2.40
2023-05-17T14:37:01.010Z,2.37
2023-05-17T14:38:33.796Z,2.40
2023-05-17T14:40:08.210Z,2.00
2023-05-17T14:41:42.152Z,2.47
2023-05-17T14:43:16.296Z,3.60
2023-05-17T14:44:49.047Z,2.10
2023-05-17T14:46:21.105Z,2.13
2023-05-17T14:47:55.348Z,1.93
2023-05-17T14:49:28.147Z,1.90
2023-05-17T14:51:03.164Z,1.93
2023-05-17T14:52:36.398Z,2.37
2023-05-17T14:54:14.084Z,2.00
2023-05-17T14:55:47.589Z,1.90
2023-05-17T14:57:21.368Z,2.47
2023-05-17T14:58:54.591Z,2.17
2023-05-17T15:00:27.473Z,2.33
2023-05-17T15:02:00.379Z,2.20
2023-05-17T15:03:34.753Z,2.37
2023-05-17T15:05:08.609Z,2.00
2023-05-17T15:06:42.127Z,2.33
2023-05-17T15:08:15.158Z,2.30
2023-05-17T15:09:48.315Z,2.30
2023-05-17T15:11:20.166Z,2.20
2023-05-17T15:12:53.277Z,2.43
2023-05-17T15:14:26.053Z,2.13
2023-05-17T15:15:58.880Z,2.43
2023-05-17T15:17:32.016Z,2.20
2023-05-17T15:19:06.478Z,2.20
2023-05-17T15:20:39.624Z,1.97
2023-05-17T15:22:12.426Z,2.17
2023-05-17T15:23:45.952Z,2.20
2023-05-17T15:25:18.858Z,2.23
2023-05-17T15:26:51.617Z,2.30
2023-05-17T15:28:24.425Z,2.10
2023-05-17T15:29:57.156Z,2.00
2023-05-17T15:31:30.098Z,2.30
2023-05-17T15:33:03.105Z,2.07
2023-05-17T15:34:37.244Z,2.30
2023-05-17T15:36:11.255Z,2.40
2023-05-17T15:37:45.245Z,1.97
2023-05-17T15:39:18.207Z,2.30
2023-05-17T15:41:02.553Z,2.30
2023-05-17T15:42:35.409Z,2.07
2023-05-17T15:44:09.058Z,2.43
2023-05-17T15:45:41.810Z,2.00
2023-05-17T15:47:14.529Z,2.37
2023-05-17T15:48:47.695Z,2.80
2023-05-17T15:50:21.790Z,2.30
2023-05-17T15:51:54.577Z,2.03
2023-05-17T15:53:28.647Z,1.93
2023-05-17T15:55:01.574Z,2.17
2023-05-17T15:56:34.479Z,1.80
2023-05-17T15:58:09.440Z,2.13
2023-05-17T15:59:42.177Z,1.83
2023-05-17T16:01:15.025Z,2.10
2023-05-17T16:02:47.854Z,2.00
2023-05-17T16:04:20.734Z,2.10
2023-05-17T16:05:55.014Z,2.00
2023-05-17T16:07:27.970Z,2.17
2023-05-17T16:09:00.699Z,2.10
2023-05-17T16:10:33.583Z,2.33
2023-05-17T16:12:06.918Z,2.50
2023-05-17T16:13:39.664Z,2.23
2023-05-17T16:15:12.604Z,2.10
2023-05-17T16:16:45.455Z,2.20
2023-05-17T16:18:18.397Z,2.10
2023-05-17T16:19:51.669Z,2.20
2023-05-17T16:21:26.272Z,2.00
2023-05-17T16:22:59.090Z,2.37
2023-05-17T16:24:32.119Z,2.10
2023-05-17T16:26:05.004Z,1.93
2023-05-17T16:27:37.730Z,2.53
2023-05-17T16:29:10.490Z,2.60
2023-05-17T16:30:43.258Z,2.33
2023-05-17T16:32:16.300Z,2.37
2023-05-17T16:33:49.099Z,2.20
2023-05-17T16:35:22.545Z,2.43
2023-05-17T16:36:56.855Z,2.13
2023-05-17T16:38:29.601Z,2.30
2023-05-17T16:40:02.488Z,2.30
2023-05-17T16:41:35.793Z,2.30
2023-05-17T16:43:08.579Z,2.40
2023-05-17T16:44:41.420Z,2.17
2023-05-17T16:46:14.170Z,2.20
2023-05-17T16:47:46.031Z,2.20
2023-05-17T16:49:18.882Z,2.10
2023-05-17T16:50:51.941Z,2.17
2023-05-17T16:52:26.570Z,1.97
2023-05-17T16:53:59.304Z,2.27
2023-05-17T16:55:32.044Z,2.37
2023-05-17T16:57:07.974Z,2.40
2023-05-17T16:58:41.081Z,2.17
2023-05-17T17:00:14.864Z,2.23
2023-05-17T17:01:47.704Z,2.30
2023-05-17T17:03:20.607Z,2.10
2023-05-17T17:04:53.465Z,2.10
2023-05-17T17:06:26.182Z,2.13
2023-05-17T17:08:00.285Z,2.50
2023-05-17T17:09:33.010Z,1.90
2023-05-17T17:11:05.818Z,2.77
2023-05-17T17:12:38.537Z,2.23
2023-05-17T17:14:11.789Z,2.30
2023-05-17T17:15:44.541Z,2.13
2023-05-17T17:17:17.391Z,2.30
2023-05-17T17:18:50.354Z,2.30
2023-05-17T17:20:23.140Z,2.17
2023-05-17T17:21:55.887Z,2.23
2023-05-17T17:23:29.962Z,2.23
2023-05-17T17:25:02.749Z,2.07
2023-05-17T17:26:36.264Z,2.10
2023-05-17T17:28:09.355Z,2.20
2023-05-17T17:29:42.092Z,2.43
2023-05-17T17:31:14.899Z,2.47
2023-05-17T17:32:47.751Z,2.00
2023-05-17T17:34:20.610Z,2.30
2023-05-17T17:35:53.473Z,2.60
2023-05-17T17:37:26.277Z,2.00
2023-05-17T17:39:00.378Z,2.40
2023-05-17T17:40:33.226Z,2.60
2023-05-17T17:42:06.671Z,2.10
2023-05-17T17:43:41.183Z,2.30
2023-05-17T17:45:13.964Z,2.27
2023-05-17T17:46:46.795Z,2.33
2023-05-17T17:48:19.622Z,2.30
2023-05-17T17:49:52.563Z,2.30
2023-05-17T17:51:25.490Z,2.27
2023-05-17T17:52:58.277Z,2.20
2023-05-17T17:54:32.382Z,2.30
2023-05-17T17:56:07.017Z,2.30
2023-05-17T17:57:39.826Z,2.27
2023-05-17T17:59:13.219Z,2.30
2023-05-17T18:00:45.978Z,2.30
2023-05-17T18:02:18.768Z,2.47
2023-05-17T18:03:51.565Z,2.43
2023-05-17T18:05:25.929Z,2.30
2023-05-17T18:06:58.687Z,2.30
2023-05-17T18:08:31.463Z,1.93
2023-05-17T18:10:06.213Z,2.30
2023-05-17T18:11:39.084Z,2.33
2023-05-17T18:13:11.901Z,2.20
2023-05-17T18:14:44.637Z,2.47
2023-05-17T18:16:17.818Z,2.17
2023-05-17T18:17:52.007Z,2.17
2023-05-17T18:19:24.983Z,2.40
2023-05-17T18:20:57.882Z,2.70
2023-05-17T18:22:30.903Z,3.80
2023-05-17T18:24:03.751Z,4.77
2023-05-17T18:25:38.165Z,4.70
2023-05-17T18:27:12.965Z,4.70
2023-05-17T18:28:45.772Z,4.43
2023-05-17T18:30:19.011Z,3.80
2023-05-17T18:31:52.040Z,3.07
2023-05-17T18:33:25.153Z,2.77
2023-05-17T18:34:57.941Z,2.40
2023-05-17T18:36:30.886Z,2.70
2023-05-17T18:38:03.626Z,2.20
2023-05-17T18:39:36.729Z,2.00
2023-05-17T18:41:10.846Z,2.20
2023-05-17T18:42:43.608Z,2.20
2023-05-17T18:44:17.999Z,2.23
2023-05-17T18:45:52.224Z,2.40
2023-05-17T18:47:27.581Z,2.53
2023-05-17T18:49:00.418Z,1.90
2023-05-17T18:50:32.476Z,2.33
2023-05-17T18:52:05.593Z,2.50
2023-05-17T18:53:38.322Z,2.03
2023-05-17T18:55:11.167Z,2.33
2023-05-17T18:56:45.414Z,1.93
2023-05-17T18:58:18.385Z,2.30
2023-05-17T18:59:51.123Z,2.10
2023-05-17T19:01:24.117Z,2.40
2023-05-17T19:02:56.974Z,2.00
2023-05-17T19:04:31.989Z,2.60
2023-05-17T19:06:05.071Z,2.37
2023-05-17T19:07:37.973Z,2.60
2023-05-17T19:09:10.710Z,2.90
2023-05-17T19:10:43.494Z,2.87
2023-05-17T19:12:17.615Z,2.57
2023-05-17T19:13:50.445Z,2.40
2023-05-17T19:15:23.347Z,2.20
2023-05-17T19:16:56.774Z,2.53
2023-05-17T19:18:29.815Z,2.70
2023-05-17T19:20:03.138Z,2.60
2023-05-17T19:21:35.923Z,2.47
2023-05-17T19:23:09.169Z,2.63
2023-05-17T19:24:41.938Z,2.50
2023-05-17T19:26:14.702Z,2.37
2023-05-17T19:27:48.795Z,2.60
2023-05-17T19:29:22.178Z,2.07
2023-05-17T19:30:54.929Z,2.00
2023-05-17T19:32:27.835Z,2.53
2023-05-17T19:34:01.926Z,2.17
2023-05-17T19:35:36.924Z,2.73
2023-05-17T19:37:09.710Z,2.57
2023-05-17T19:38:42.451Z,2.40
2023-05-17T19:40:18.450Z,2.60
2023-05-17T19:41:51.221Z,2.40
2023-05-17T19:43:25.294Z,2.50
2023-05-17T19:44:58.068Z,2.10
2023-05-17T19:46:30.858Z,2.50
2023-05-17T19:48:07.203Z,2.50
2023-05-17T19:49:40.009Z,2.23
2023-05-17T19:51:12.908Z,2.20
2023-05-17T19:52:45.659Z,2.30
2023-05-17T19:54:18.430Z,2.50
2023-05-17T19:55:51.159Z,2.63
2023-05-17T19:57:24.037Z,2.43
2023-05-17T19:58:58.112Z,2.20
2023-05-17T20:00:32.526Z,2.23
2023-05-17T20:02:05.502Z,2.17
2023-05-17T20:03:37.552Z,2.33
2023-05-17T20:05:11.032Z,2.23
2023-05-17T20:06:43.789Z,2.27
2023-05-17T20:08:16.559Z,2.40
2023-05-17T20:09:49.351Z,2.10
2023-05-17T20:11:22.262Z,2.53
2023-05-17T20:12:55.437Z,2.17
2023-05-17T20:14:29.545Z,2.40
2023-05-17T20:16:02.484Z,2.50
2023-05-17T20:17:35.405Z,2.10
2023-05-17T20:19:08.223Z,2.03
2023-05-17T20:20:41.061Z,2.03
2023-05-17T20:22:14.145Z,2.27
2023-05-17T20:23:47.086Z,2.03
2023-05-17T20:25:19.922Z,2.20
2023-05-17T20:26:53.834Z,2.40
2023-05-17T20:28:26.782Z,2.23
2023-05-17T20:30:00.882Z,2.10
2023-05-17T20:31:34.044Z,2.40
2023-05-17T20:33:07.395Z,2.00
2023-05-17T20:34:41.304Z,2.10
2023-05-17T20:36:14.585Z,2.30
2023-05-17T20:37:47.449Z,2.17
2023-05-17T20:39:22.102Z,2.33
2023-05-17T20:40:55.424Z,2.07
2023-05-17T20:42:28.989Z,2.00
2023-05-17T20:44:02.305Z,2.33
2023-05-17T20:45:36.402Z,2.73
2023-05-17T20:47:09.672Z,2.37
2023-05-17T20:48:43.134Z,2.00
2023-05-17T20:50:17.164Z,2.27